Time;durP1;ratioP1;P1;durP2;ratioP2;P2;SDS_P1;SDS_P2;PMS_P1;PMS_P2;Temp;Humidity;BMP_temperature;BMP_pressure;BME280_temperature;BME280_humidity;BME280_pressure;Samples;Min_cycle;Max_cycle;Signal;HPM_P1;HPM_P2
2022/07/01 00:02:06;;;;;;;0.70;0.60;;;;;;;;;;5071070;28;20446;-75
2022/07/01 00:04:33;;;;;;;0.70;0.60;;;;;;;;;;5050661;28;20866;-74
2022/07/01 00:07:19;;;;;;;0.60;0.50;;;;;;;;;;5055698;28;20456;-75
2022/07/01 00:09:45;;;;;;;0.70;0.60;;;;;;;;;;5054429;28;20859;-75
2022/07/01 00:12:14;;;;;;;0.70;0.60;;;;;;;;;;5054924;28;20413;-75
2022/07/01 00:14:42;;;;;;;0.70;0.60;;;;;;;;;;5054642;28;20479;-75
2022/07/01 00:17:10;;;;;;;0.70;0.60;;;;;;;;;;5037797;28;20668;-74
2022/07/01 00:19:37;;;;;;;0.70;0.60;;;;;;;;;;5053805;28;20429;-75
2022/07/01 00:22:04;;;;;;;0.63;0.60;;;;;;;;;;5053713;28;20868;-74
2022/07/01 00:24:31;;;;;;;0.70;0.60;;;;;;;;;;5053313;28;20445;-75
2022/07/01 00:26:58;;;;;;;0.67;0.60;;;;;;;;;;5055092;28;21010;-75
2022/07/01 00:29:25;;;;;;;0.70;0.70;;;;;;;;;;5057173;28;20423;-75
2022/07/01 00:31:52;;;;;;;0.60;0.60;;;;;;;;;;5060639;28;20990;-74
2022/07/01 00:34:20;;;;;;;0.70;0.60;;;;;;;;;;5039676;28;20439;-77
2022/07/01 00:36:47;;;;;;;0.70;0.70;;;;;;;;;;5060314;28;20467;-75
2022/07/01 00:39:13;;;;;;;2.43;1.10;;;;;;;;;;5074965;28;20791;-74
2022/07/01 00:41:40;;;;;;;0.60;0.57;;;;;;;;;;5073217;28;20813;-75
2022/07/01 00:44:15;;;;;;;0.70;0.70;;;;;;;;;;5067747;28;20437;-75
2022/07/01 00:46:41;;;;;;;0.70;0.60;;;;;;;;;;5053478;28;20771;-75
2022/07/01 00:49:09;;;;;;;0.67;0.60;;;;;;;;;;5054774;28;20427;-75
2022/07/01 00:51:39;;;;;;;0.70;0.70;;;;;;;;;;5053580;28;20491;-75
2022/07/01 00:54:11;;;;;;;0.70;0.60;;;;;;;;;;5053219;28;21012;-74
2022/07/01 00:56:40;;;;;;;0.70;0.70;;;;;;;;;;5055321;28;20469;-75
2022/07/01 00:59:09;;;;;;;0.60;0.60;;;;;;;;;;5068974;28;20543;-76
2022/07/01 01:01:36;;;;;;;0.77;0.77;;;;;;;;;;5058742;28;20460;-74
2022/07/01 01:04:04;;;;;;;0.70;0.60;;;;;;;;;;5052533;28;20494;-75
2022/07/01 01:06:53;;;;;;;0.60;0.60;;;;;;;;;;5060791;28;20879;-75
2022/07/01 01:09:20;;;;;;;0.70;0.63;;;;;;;;;;5074554;28;20935;-75
2022/07/01 01:11:47;;;;;;;0.67;0.60;;;;;;;;;;5049252;28;20455;-75
2022/07/01 01:14:15;;;;;;;0.70;0.63;;;;;;;;;;5055913;28;20883;-75
2022/07/01 01:16:42;;;;;;;1.50;1.40;;;;;;;;;;5049074;28;20529;-75
2022/07/01 01:19:10;;;;;;;0.70;0.67;;;;;;;;;;5061204;28;20554;-76
2022/07/01 01:21:39;;;;;;;0.60;0.60;;;;;;;;;;5054814;28;21054;-75
2022/07/01 01:24:08;;;;;;;0.80;0.80;;;;;;;;;;5056625;28;20432;-74
2022/07/01 01:26:38;;;;;;;0.63;0.60;;;;;;;;;;5073416;28;20538;-75
2022/07/01 01:29:07;;;;;;;0.70;0.70;;;;;;;;;;5071772;28;20787;-75
2022/07/01 01:31:35;;;;;;;2.50;1.43;;;;;;;;;;5070172;28;20493;-75
2022/07/01 01:34:04;;;;;;;0.60;0.57;;;;;;;;;;5072535;28;20790;-75
2022/07/01 01:36:32;;;;;;;0.70;0.60;;;;;;;;;;5071769;28;20485;-75
2022/07/01 01:39:23;;;;;;;0.60;0.60;;;;;;;;;;5072125;28;20457;-75
2022/07/01 01:41:50;;;;;;;0.60;0.60;;;;;;;;;;5070856;28;20449;-75
2022/07/01 01:44:19;;;;;;;2.50;2.30;;;;;;;;;;5072350;28;20441;-76
2022/07/01 01:46:46;;;;;;;0.70;0.70;;;;;;;;;;5073258;28;20461;-75
2022/07/01 01:49:15;;;;;;;0.70;0.60;;;;;;;;;;5072371;28;20547;-76
2022/07/01 01:51:44;;;;;;;1.57;1.23;;;;;;;;;;5072492;28;20986;-75
2022/07/01 01:54:14;;;;;;;1.00;1.00;;;;;;;;;;5071982;28;20906;-75
2022/07/01 01:56:42;;;;;;;0.70;0.67;;;;;;;;;;5052705;28;20460;-76
2022/07/01 01:59:12;;;;;;;0.70;0.60;;;;;;;;;;5051991;28;20500;-75
2022/07/01 02:01:40;;;;;;;0.60;0.60;;;;;;;;;;5051788;28;21010;-75
2022/07/01 02:04:08;;;;;;;0.60;0.60;;;;;;;;;;5037257;28;20484;-76
2022/07/01 02:06:40;;;;;;;0.60;0.60;;;;;;;;;;5057283;28;20469;-75
2022/07/01 02:09:11;;;;;;;0.70;0.60;;;;;;;;;;5054980;28;20441;-75
2022/07/01 02:11:40;;;;;;;0.67;0.60;;;;;;;;;;5072492;28;20432;-75
2022/07/01 02:14:08;;;;;;;0.60;0.50;;;;;;;;;;5065430;28;20436;-75
2022/07/01 02:16:37;;;;;;;0.70;0.70;;;;;;;;;;5050841;28;20520;-76
2022/07/01 02:19:05;;;;;;;0.70;0.70;;;;;;;;;;5051935;28;20448;-76
2022/07/01 02:21:33;;;;;;;0.70;0.60;;;;;;;;;;5051755;28;20493;-75
2022/07/01 02:24:02;;;;;;;0.60;0.60;;;;;;;;;;5066269;28;20440;-75
2022/07/01 02:26:30;;;;;;;0.70;0.70;;;;;;;;;;5051058;28;20451;-76
2022/07/01 02:29:08;;;;;;;0.60;0.60;;;;;;;;;;5051809;28;20465;-76
2022/07/01 02:31:35;;;;;;;0.73;0.73;;;;;;;;;;5051921;28;20490;-77
2022/07/01 02:34:02;;;;;;;0.67;0.67;;;;;;;;;;5054280;28;20443;-76
2022/07/01 02:36:29;;;;;;;0.60;0.53;;;;;;;;;;5055383;28;20570;-76
2022/07/01 02:38:56;;;;;;;0.70;0.70;;;;;;;;;;5071387;28;20466;-75
2022/07/01 02:41:23;;;;;;;0.60;0.60;;;;;;;;;;5064182;28;20450;-76
2022/07/01 02:43:50;;;;;;;0.60;0.50;;;;;;;;;;5071517;28;21000;-76
2022/07/01 02:46:18;;;;;;;0.80;0.70;;;;;;;;;;5071211;28;20441;-76
2022/07/01 02:48:45;;;;;;;0.70;0.60;;;;;;;;;;5050878;28;20445;-76
2022/07/01 02:51:13;;;;;;;0.60;0.53;;;;;;;;;;5051431;28;20508;-76
2022/07/01 02:53:39;;;;;;;0.60;0.50;;;;;;;;;;5062596;28;20435;-76
2022/07/01 02:56:06;;;;;;;0.70;0.60;;;;;;;;;;5064162;28;20463;-76
2022/07/01 02:58:33;;;;;;;0.60;0.60;;;;;;;;;;5071896;28;20493;-76
2022/07/01 03:01:00;;;;;;;0.60;0.60;;;;;;;;;;5072190;28;20765;-77
2022/07/01 03:03:28;;;;;;;0.70;0.60;;;;;;;;;;5058491;28;20456;-77
2022/07/01 03:05:56;;;;;;;0.60;0.60;;;;;;;;;;5050281;28;20786;-78
2022/07/01 03:08:23;;;;;;;0.60;0.60;;;;;;;;;;5052203;28;20848;-76
2022/07/01 03:10:50;;;;;;;0.60;0.60;;;;;;;;;;5072602;28;20768;-77
2022/07/01 03:13:19;;;;;;;0.60;0.60;;;;;;;;;;5065118;28;20470;-76
2022/07/01 03:15:46;;;;;;;0.70;0.60;;;;;;;;;;5050947;28;20471;-76
2022/07/01 03:18:13;;;;;;;0.67;0.60;;;;;;;;;;5053137;28;20472;-76
2022/07/01 03:20:41;;;;;;;0.70;0.60;;;;;;;;;;5052732;28;20443;-76
2022/07/01 03:23:08;;;;;;;0.60;0.60;;;;;;;;;;5034151;28;20432;-76
2022/07/01 03:25:36;;;;;;;0.70;0.70;;;;;;;;;;5053654;28;20475;-76
2022/07/01 03:28:03;;;;;;;0.63;0.60;;;;;;;;;;5052491;28;20488;-76
2022/07/01 03:30:30;;;;;;;0.60;0.60;;;;;;;;;;5052270;28;20420;-76
2022/07/01 03:32:57;;;;;;;0.70;0.70;;;;;;;;;;5060621;28;20527;-75
2022/07/01 03:35:40;;;;;;;0.60;0.50;;;;;;;;;;5052674;28;20440;-77
2022/07/01 03:38:09;;;;;;;0.60;0.60;;;;;;;;;;5070570;28;20459;-76
2022/07/01 03:40:36;;;;;;;0.70;0.60;;;;;;;;;;5074097;28;20446;-76
2022/07/01 03:43:03;;;;;;;0.60;0.60;;;;;;;;;;5076116;28;20489;-77
2022/07/01 03:45:31;;;;;;;0.60;0.60;;;;;;;;;;5070922;28;20833;-77
2022/07/01 03:47:58;;;;;;;0.60;0.60;;;;;;;;;;5054020;28;20593;-76
2022/07/01 03:50:25;;;;;;;0.60;0.60;;;;;;;;;;5054221;28;20440;-76
2022/07/01 03:55:40;;;;;;;0.70;0.70;;;;;;;;;;5056246;28;20419;-76
2022/07/01 03:58:06;;;;;;;0.80;0.80;;;;;;;;;;5054256;28;20557;-77
2022/07/01 04:00:34;;;;;;;0.60;0.50;;;;;;;;;;5055217;28;20467;-76
2022/07/01 04:03:00;;;;;;;0.63;0.60;;;;;;;;;;5055666;28;20986;-78
2022/07/01 04:05:27;;;;;;;2.63;1.53;;;;;;;;;;5053800;28;20788;-77
2022/07/01 04:07:54;;;;;;;0.60;0.53;;;;;;;;;;5061564;28;20720;-76
2022/07/01 04:10:20;;;;;;;0.60;0.60;;;;;;;;;;5053782;28;20795;-76
2022/07/01 04:12:49;;;;;;;0.80;0.70;;;;;;;;;;5037860;28;20773;-77
2022/07/01 04:15:33;;;;;;;0.70;0.60;;;;;;;;;;5052441;28;20960;-78
2022/07/01 04:18:01;;;;;;;0.60;0.60;;;;;;;;;;5057569;28;20463;-76
2022/07/01 04:20:27;;;;;;;0.70;0.60;;;;;;;;;;5056722;28;20515;-77
2022/07/01 04:22:55;;;;;;;0.70;0.70;;;;;;;;;;5074217;28;20446;-77
2022/07/01 04:25:22;;;;;;;0.60;0.60;;;;;;;;;;5074289;28;20447;-76
2022/07/01 04:27:53;;;;;;;0.60;0.50;;;;;;;;;;5056126;28;20956;-77
2022/07/01 04:30:20;;;;;;;0.67;0.60;;;;;;;;;;5071426;28;20473;-77
2022/07/01 04:32:51;;;;;;;0.60;0.60;;;;;;;;;;5073420;28;20471;-76
2022/07/01 04:35:18;;;;;;;0.70;0.60;;;;;;;;;;5056828;28;20440;-76
2022/07/01 04:37:45;;;;;;;0.70;0.60;;;;;;;;;;5072749;28;20532;-77
2022/07/01 04:40:12;;;;;;;0.60;0.60;;;;;;;;;;5073763;28;20462;-77
2022/07/01 04:42:39;;;;;;;0.60;0.60;;;;;;;;;;5056135;28;20810;-77
2022/07/01 04:45:07;;;;;;;0.70;0.60;;;;;;;;;;5073070;28;20651;-75
2022/07/01 04:47:34;;;;;;;0.60;0.60;;;;;;;;;;5066504;28;20455;-77
2022/07/01 04:50:02;;;;;;;0.70;0.60;;;;;;;;;;5058264;28;20924;-77
2022/07/01 04:52:29;;;;;;;0.70;0.70;;;;;;;;;;5066612;28;20969;-76
2022/07/01 04:54:56;;;;;;;0.80;0.80;;;;;;;;;;5056768;28;20435;-77
2022/07/01 04:57:32;;;;;;;0.70;0.60;;;;;;;;;;5058981;28;20458;-76
2022/07/01 04:59:59;;;;;;;0.70;0.70;;;;;;;;;;5053318;28;20448;-77
2022/07/01 05:02:27;;;;;;;0.70;0.60;;;;;;;;;;5062074;28;20474;-76
2022/07/01 05:04:54;;;;;;;0.70;0.70;;;;;;;;;;5072634;28;20435;-76
2022/07/01 05:07:30;;;;;;;0.70;0.63;;;;;;;;;;5069011;28;20536;-77
2022/07/01 05:09:58;;;;;;;0.70;0.60;;;;;;;;;;5067596;28;20434;-77
2022/07/01 05:12:27;;;;;;;0.70;0.60;;;;;;;;;;5072311;28;20430;-77
2022/07/01 05:14:54;;;;;;;0.60;0.60;;;;;;;;;;5072076;28;20476;-77
2022/07/01 05:21:55;;;;;;;0.80;0.80;;;;;;;;;;5073078;28;21031;-77
2022/07/01 05:22:56;;;;;;;0.70;0.60;;;;;;;;;;5073866;28;20439;-78
2022/07/01 05:25:23;;;;;;;0.70;0.60;;;;;;;;;;5072282;28;20472;-77
2022/07/01 05:27:49;;;;;;;0.70;0.60;;;;;;;;;;5061469;28;20461;-77
2022/07/01 05:30:16;;;;;;;0.70;0.60;;;;;;;;;;5038841;28;21006;-77
2022/07/01 05:32:43;;;;;;;1.10;1.00;;;;;;;;;;5052301;28;20482;-76
2022/07/01 05:35:11;;;;;;;0.70;0.70;;;;;;;;;;5036558;28;20444;-76
2022/07/01 05:37:37;;;;;;;0.70;0.70;;;;;;;;;;5065716;28;20477;-77
2022/07/01 05:40:05;;;;;;;1.17;1.07;;;;;;;;;;5071596;28;20427;-76
2022/07/01 05:42:32;;;;;;;0.70;0.70;;;;;;;;;;5056225;28;20436;-76
2022/07/01 05:44:58;;;;;;;0.70;0.70;;;;;;;;;;5072252;28;20450;-76
2022/07/01 05:47:25;;;;;;;0.70;0.70;;;;;;;;;;5056121;28;20485;-77
2022/07/01 05:49:52;;;;;;;0.70;0.60;;;;;;;;;;5071955;28;20526;-77
2022/07/01 05:52:20;;;;;;;0.70;0.60;;;;;;;;;;5072881;28;20470;-76
2022/07/01 05:54:47;;;;;;;0.70;0.60;;;;;;;;;;5073753;28;20414;-78
2022/07/01 05:57:14;;;;;;;0.70;0.60;;;;;;;;;;5070064;28;20809;-77
2022/07/01 05:59:41;;;;;;;0.70;0.60;;;;;;;;;;5072500;28;20522;-76
2022/07/01 06:02:07;;;;;;;0.70;0.60;;;;;;;;;;5060823;28;20435;-77
2022/07/01 06:04:35;;;;;;;0.70;0.70;;;;;;;;;;5053370;28;20414;-77
2022/07/01 06:07:03;;;;;;;0.70;0.70;;;;;;;;;;5059938;28;20474;-77
2022/07/01 06:09:31;;;;;;;0.80;0.80;;;;;;;;;;5085954;28;20550;-77
2022/07/01 06:11:58;;;;;;;0.70;0.60;;;;;;;;;;5052110;28;20449;-77
2022/07/01 06:14:25;;;;;;;0.70;0.60;;;;;;;;;;5036601;28;20448;-76
2022/07/01 06:16:52;;;;;;;0.70;0.67;;;;;;;;;;5037856;28;20462;-77
2022/07/01 06:19:19;;;;;;;1.60;1.50;;;;;;;;;;5035838;28;20433;-77
2022/07/01 06:21:46;;;;;;;0.80;0.80;;;;;;;;;;5051511;28;20982;-79
2022/07/01 06:24:17;;;;;;;0.70;0.70;;;;;;;;;;5052673;28;20414;-77
2022/07/01 06:26:46;;;;;;;0.70;0.70;;;;;;;;;;5039929;28;20805;-77
2022/07/01 06:29:13;;;;;;;0.70;0.70;;;;;;;;;;5035523;28;20435;-76
2022/07/01 06:31:40;;;;;;;0.70;0.60;;;;;;;;;;5052482;28;20420;-77
2022/07/01 06:34:07;;;;;;;0.80;0.80;;;;;;;;;;5051791;28;20850;-77
2022/07/01 06:36:34;;;;;;;0.70;0.70;;;;;;;;;;5036348;28;20511;-76
2022/07/01 06:39:01;;;;;;;1.03;0.93;;;;;;;;;;5053552;28;20408;-76
2022/07/01 06:41:28;;;;;;;0.70;0.70;;;;;;;;;;5066013;28;20458;-78
2022/07/01 06:43:56;;;;;;;0.70;0.70;;;;;;;;;;5064428;28;20458;-76
2022/07/01 06:46:26;;;;;;;0.80;0.70;;;;;;;;;;5063584;28;20545;-76
2022/07/01 06:48:53;;;;;;;1.30;1.20;;;;;;;;;;5051832;28;20442;-76
2022/07/01 06:51:20;;;;;;;0.70;0.70;;;;;;;;;;5055044;28;20454;-76
2022/07/01 06:53:49;;;;;;;0.70;0.70;;;;;;;;;;5050483;28;20543;-75
2022/07/01 06:56:16;;;;;;;0.70;0.60;;;;;;;;;;5052408;28;20434;-76
2022/07/01 06:58:43;;;;;;;0.70;0.70;;;;;;;;;;5066320;28;20455;-76
2022/07/01 07:01:12;;;;;;;0.70;0.70;;;;;;;;;;5036752;28;20478;-78
2022/07/01 07:03:39;;;;;;;0.70;0.60;;;;;;;;;;5063928;28;20442;-76
2022/07/01 07:06:06;;;;;;;0.70;0.60;;;;;;;;;;5055412;28;20496;-76
2022/07/01 07:08:32;;;;;;;0.70;0.67;;;;;;;;;;5067411;28;20842;-77
2022/07/01 07:11:00;;;;;;;0.70;0.60;;;;;;;;;;5051228;28;20478;-77
2022/07/01 07:13:27;;;;;;;1.10;1.00;;;;;;;;;;5039094;28;20450;-79
2022/07/01 07:15:55;;;;;;;0.70;0.70;;;;;;;;;;5057135;28;20434;-78
2022/07/01 07:18:23;;;;;;;0.70;0.70;;;;;;;;;;5055309;28;20466;-77
2022/07/01 07:20:50;;;;;;;0.70;0.70;;;;;;;;;;5054816;28;20459;-78
2022/07/01 07:23:16;;;;;;;0.70;0.70;;;;;;;;;;5037911;28;20487;-77
2022/07/01 07:25:43;;;;;;;0.70;0.70;;;;;;;;;;5071619;28;20442;-75
2022/07/01 07:28:12;;;;;;;0.80;0.70;;;;;;;;;;5077081;28;20425;-77
2022/07/01 07:30:39;;;;;;;0.70;0.60;;;;;;;;;;5076460;28;20446;-77
2022/07/01 07:33:06;;;;;;;0.70;0.70;;;;;;;;;;5059243;28;20939;-76
2022/07/01 07:35:35;;;;;;;0.80;0.70;;;;;;;;;;5056506;28;20545;-77
2022/07/01 07:38:02;;;;;;;0.80;0.70;;;;;;;;;;5048038;28;20561;-76
2022/07/01 07:40:29;;;;;;;0.70;0.60;;;;;;;;;;5054913;28;20451;-77
2022/07/01 07:42:56;;;;;;;0.70;0.60;;;;;;;;;;5036888;28;20522;-77
2022/07/01 07:45:22;;;;;;;0.70;0.70;;;;;;;;;;5058288;28;20442;-79
2022/07/01 07:47:49;;;;;;;0.87;0.80;;;;;;;;;;5073979;28;20877;-77
2022/07/01 07:50:19;;;;;;;0.70;0.70;;;;;;;;;;5055683;28;20510;-79
2022/07/01 07:52:47;;;;;;;1.20;1.07;;;;;;;;;;5054690;28;20567;-79
2022/07/01 07:55:13;;;;;;;0.70;0.70;;;;;;;;;;5057514;28;20553;-79
2022/07/01 07:57:41;;;;;;;0.80;0.77;;;;;;;;;;5073442;28;20466;-78
2022/07/01 08:00:08;;;;;;;0.70;0.70;;;;;;;;;;5077112;28;20433;-78
2022/07/01 08:02:38;;;;;;;0.83;0.80;;;;;;;;;;5061089;28;20488;-78
2022/07/01 08:05:05;;;;;;;0.70;0.60;;;;;;;;;;5054775;28;20463;-78
2022/07/01 08:07:34;;;;;;;0.70;0.60;;;;;;;;;;5067255;28;20494;-79
2022/07/01 08:10:03;;;;;;;0.70;0.60;;;;;;;;;;5073097;28;20805;-79
2022/07/01 08:12:29;;;;;;;0.70;0.60;;;;;;;;;;5056941;28;20455;-78
2022/07/01 08:14:56;;;;;;;0.80;0.80;;;;;;;;;;5066436;28;20540;-79
2022/07/01 08:17:23;;;;;;;0.70;0.60;;;;;;;;;;5054573;28;20497;-78
2022/07/01 08:19:50;;;;;;;0.73;0.70;;;;;;;;;;5052664;28;20468;-79
2022/07/01 08:22:17;;;;;;;0.80;0.70;;;;;;;;;;5053432;28;20451;-79
2022/07/01 08:24:45;;;;;;;0.70;0.63;;;;;;;;;;5061027;28;20975;-79
2022/07/01 08:27:13;;;;;;;0.80;0.70;;;;;;;;;;5035841;28;20490;-79
2022/07/01 08:29:40;;;;;;;0.77;0.67;;;;;;;;;;5055986;28;20919;-78
2022/07/01 08:32:07;;;;;;;0.70;0.60;;;;;;;;;;5073229;28;20442;-79
2022/07/01 08:34:35;;;;;;;0.90;0.90;;;;;;;;;;5074066;28;20473;-78
2022/07/01 08:37:03;;;;;;;0.80;0.73;;;;;;;;;;5053290;28;20463;-79
2022/07/01 08:39:30;;;;;;;1.00;0.90;;;;;;;;;;5066495;28;20530;-76
2022/07/01 08:41:57;;;;;;;0.70;0.70;;;;;;;;;;5067212;28;20971;-77
2022/07/01 08:44:25;;;;;;;0.70;0.70;;;;;;;;;;5073159;28;20498;-78
2022/07/01 08:46:53;;;;;;;0.70;0.70;;;;;;;;;;5055932;28;20462;-79
2022/07/01 08:49:20;;;;;;;0.70;0.70;;;;;;;;;;5055068;28;20819;-76
2022/07/01 08:51:47;;;;;;;0.70;0.70;;;;;;;;;;5055354;28;20497;-78
2022/07/01 08:54:17;;;;;;;0.70;0.60;;;;;;;;;;5049184;28;20455;-78
2022/07/01 08:56:46;;;;;;;1.37;0.80;;;;;;;;;;5059459;28;20456;-79
2022/07/01 08:59:22;;;;;;;0.80;0.70;;;;;;;;;;5055053;28;20455;-79
2022/07/01 09:01:59;;;;;;;1.37;1.27;;;;;;;;;;5068736;28;20464;-76
2022/07/01 09:04:27;;;;;;;0.90;0.80;;;;;;;;;;5053631;28;20958;-79
2022/07/01 09:06:59;;;;;;;0.70;0.60;;;;;;;;;;5041036;28;20988;-78
2022/07/01 09:09:27;;;;;;;0.80;0.80;;;;;;;;;;5060685;28;20444;-78
2022/07/01 09:11:55;;;;;;;0.90;0.90;;;;;;;;;;5052793;28;20424;-77
2022/07/01 09:14:22;;;;;;;0.80;0.70;;;;;;;;;;5071097;28;20438;-80
2022/07/01 09:16:50;;;;;;;2.60;1.37;;;;;;;;;;5071802;28;20423;-79
2022/07/01 09:19:19;;;;;;;0.70;0.60;;;;;;;;;;5056302;28;20520;-76
2022/07/01 09:21:49;;;;;;;0.70;0.70;;;;;;;;;;5054266;28;21039;-77
2022/07/01 09:24:27;;;;;;;0.70;0.60;;;;;;;;;;5036709;28;20486;-76
2022/07/01 09:26:55;;;;;;;0.77;0.70;;;;;;;;;;5054243;28;20466;-77
2022/07/01 09:29:26;;;;;;;0.70;0.60;;;;;;;;;;5053105;28;20835;-77
2022/07/01 09:31:53;;;;;;;0.70;0.70;;;;;;;;;;5053509;28;20466;-78
2022/07/01 09:34:22;;;;;;;0.70;0.60;;;;;;;;;;5052759;28;20830;-78
2022/07/01 09:36:53;;;;;;;0.80;0.70;;;;;;;;;;5058906;28;20447;-79
2022/07/01 09:39:20;;;;;;;0.80;0.80;;;;;;;;;;5072729;28;20495;-77
2022/07/01 09:42:06;;;;;;;0.80;0.70;;;;;;;;;;5061631;28;20422;-78
2022/07/01 09:44:33;;;;;;;0.70;0.60;;;;;;;;;;5075272;28;20435;-78
2022/07/01 09:47:03;;;;;;;0.70;0.70;;;;;;;;;;5059006;28;20439;-78
2022/07/01 09:49:31;;;;;;;0.80;0.70;;;;;;;;;;5075432;28;20439;-79
2022/07/01 09:51:58;;;;;;;0.80;0.80;;;;;;;;;;5059403;28;20971;-77
2022/07/01 09:54:25;;;;;;;0.80;0.77;;;;;;;;;;5058050;28;20496;-78
2022/07/01 09:56:54;;;;;;;1.40;1.30;;;;;;;;;;5074228;28;20476;-77
2022/07/01 09:59:21;;;;;;;0.70;0.70;;;;;;;;;;5058880;28;20438;-77
2022/07/01 10:01:51;;;;;;;0.80;0.70;;;;;;;;;;5077397;28;20417;-77
2022/07/01 10:04:19;;;;;;;0.70;0.70;;;;;;;;;;5074737;28;20805;-76
2022/07/01 10:06:58;;;;;;;0.70;0.60;;;;;;;;;;5068280;28;20452;-76
2022/07/01 10:09:33;;;;;;;0.80;0.80;;;;;;;;;;5055032;28;20424;-76
2022/07/01 10:12:10;;;;;;;0.70;0.60;;;;;;;;;;5074160;28;20463;-76
2022/07/01 10:14:37;;;;;;;0.80;0.70;;;;;;;;;;5055544;28;20892;-77
2022/07/01 10:17:05;;;;;;;0.70;0.60;;;;;;;;;;5054338;28;20421;-76
2022/07/01 10:19:33;;;;;;;0.90;0.70;;;;;;;;;;5054091;28;20490;-77
2022/07/01 10:22:21;;;;;;;0.70;0.60;;;;;;;;;;5052920;28;20460;-77
2022/07/01 10:24:48;;;;;;;0.70;0.60;;;;;;;;;;5054583;28;20431;-77
2022/07/01 10:27:19;;;;;;;0.70;0.60;;;;;;;;;;5060960;28;20500;-76
2022/07/01 10:29:46;;;;;;;0.70;0.60;;;;;;;;;;5041188;28;20994;-76
2022/07/01 10:32:26;;;;;;;0.70;0.50;;;;;;;;;;5046585;28;20529;-78
2022/07/01 10:35:14;;;;;;;0.70;0.60;;;;;;;;;;5051697;28;20442;-76
2022/07/01 10:40:44;;;;;;;0.70;0.60;;;;;;;;;;5090733;27;20645;-76
2022/07/01 10:43:14;;;;;;;0.70;0.60;;;;;;;;;;5072838;28;20478;-76
2022/07/01 10:45:48;;;;;;;0.80;0.63;;;;;;;;;;5088700;28;20462;-76
2022/07/01 10:48:19;;;;;;;0.80;0.73;;;;;;;;;;5088550;28;20450;-77
2022/07/01 10:50:47;;;;;;;1.00;0.70;;;;;;;;;;5089169;28;20878;-75
2022/07/01 10:53:14;;;;;;;0.70;0.60;;;;;;;;;;5070617;28;20489;-75
2022/07/01 10:55:44;;;;;;;0.80;0.60;;;;;;;;;;5077350;28;20563;-77
2022/07/01 10:58:12;;;;;;;0.80;0.70;;;;;;;;;;5069042;28;20810;-77
2022/07/01 11:00:40;;;;;;;0.70;0.60;;;;;;;;;;5069457;28;20551;-76
2022/07/01 11:03:11;;;;;;;0.70;0.60;;;;;;;;;;5069158;28;20433;-76
2022/07/01 11:05:39;;;;;;;1.03;0.93;;;;;;;;;;5083919;28;20500;-77
2022/07/01 11:08:07;;;;;;;1.10;1.00;;;;;;;;;;5088942;28;20429;-78
2022/07/01 11:10:37;;;;;;;0.80;0.70;;;;;;;;;;5076358;28;20440;-74
2022/07/01 11:13:06;;;;;;;0.80;0.60;;;;;;;;;;5063129;28;20817;-75
2022/07/01 11:15:33;;;;;;;0.70;0.60;;;;;;;;;;5089602;28;20961;-77
2022/07/01 11:18:01;;;;;;;0.80;0.80;;;;;;;;;;5088979;28;20422;-76
2022/07/01 11:20:30;;;;;;;0.70;0.60;;;;;;;;;;5087784;28;20470;-77
2022/07/01 11:22:56;;;;;;;0.90;0.80;;;;;;;;;;5071749;28;20422;-77
2022/07/01 11:25:23;;;;;;;0.70;0.60;;;;;;;;;;5072198;28;20441;-77
2022/07/01 11:27:51;;;;;;;1.00;0.90;;;;;;;;;;5072283;28;20446;-77
2022/07/01 11:30:20;;;;;;;0.70;0.60;;;;;;;;;;5072204;28;20438;-77
2022/07/01 11:32:51;;;;;;;0.70;0.50;;;;;;;;;;5087567;28;20448;-77
2022/07/01 11:40:54;;;;;;;0.70;0.60;;;;;;;;;;5089239;28;20487;-76
2022/07/01 11:43:22;;;;;;;0.73;0.60;;;;;;;;;;5088228;28;20448;-77
2022/07/01 11:45:51;;;;;;;0.80;0.60;;;;;;;;;;5088056;28;20504;-78
2022/07/01 11:48:28;;;;;;;0.80;0.70;;;;;;;;;;5088533;28;20430;-77
2022/07/01 11:50:55;;;;;;;0.73;0.60;;;;;;;;;;5080047;28;20439;-75
2022/07/01 11:53:23;;;;;;;0.80;0.80;;;;;;;;;;5076370;28;20857;-78
2022/07/01 11:55:50;;;;;;;0.80;0.80;;;;;;;;;;5075047;28;20437;-77
2022/07/01 11:58:17;;;;;;;0.93;0.70;;;;;;;;;;5054688;28;20502;-77
2022/07/01 12:00:44;;;;;;;0.70;0.60;;;;;;;;;;5054416;28;20521;-75
2022/07/01 12:03:12;;;;;;;0.73;0.60;;;;;;;;;;5055526;28;20485;-78
2022/07/01 12:05:39;;;;;;;0.77;0.60;;;;;;;;;;5054639;28;20444;-78
2022/07/01 12:08:06;;;;;;;1.10;1.00;;;;;;;;;;5072102;28;20438;-78
2022/07/01 12:10:33;;;;;;;0.70;0.60;;;;;;;;;;5076077;28;20418;-80
2022/07/01 12:13:00;;;;;;;0.70;0.60;;;;;;;;;;5057951;28;20463;-77
2022/07/01 12:15:28;;;;;;;0.70;0.50;;;;;;;;;;5071685;28;20432;-78
2022/07/01 12:18:04;;;;;;;0.70;0.50;;;;;;;;;;5055305;28;20436;-78
2022/07/01 12:20:32;;;;;;;0.80;0.60;;;;;;;;;;5054060;28;20563;-78
2022/07/01 12:23:10;;;;;;;1.80;0.60;;;;;;;;;;5055148;28;20555;-78
2022/07/01 12:25:39;;;;;;;0.70;0.50;;;;;;;;;;5058038;28;20420;-76
2022/07/01 12:28:07;;;;;;;0.80;0.67;;;;;;;;;;5055419;28;20487;-75
2022/07/01 12:30:34;;;;;;;0.70;0.57;;;;;;;;;;5064481;28;20424;-76
2022/07/01 12:33:08;;;;;;;0.80;0.70;;;;;;;;;;5065805;28;20454;-76
2022/07/01 12:35:40;;;;;;;0.70;0.50;;;;;;;;;;5074474;28;20437;-77
2022/07/01 12:38:14;;;;;;;0.70;0.60;;;;;;;;;;5074453;28;20432;-77
2022/07/01 12:40:41;;;;;;;0.80;0.60;;;;;;;;;;5077141;28;21038;-77
2022/07/01 12:43:21;;;;;;;0.70;0.60;;;;;;;;;;5071468;28;20435;-79
2022/07/01 12:45:49;;;;;;;0.73;0.60;;;;;;;;;;5072124;28;20457;-77
2022/07/01 12:48:17;;;;;;;0.80;0.60;;;;;;;;;;5070809;28;20435;-81
2022/07/01 12:50:46;;;;;;;0.80;0.60;;;;;;;;;;5059726;28;20808;-77
2022/07/01 12:53:17;;;;;;;0.70;0.60;;;;;;;;;;5073151;28;20515;-76
2022/07/01 12:55:45;;;;;;;0.70;0.60;;;;;;;;;;5075190;28;20465;-78
2022/07/01 12:58:13;;;;;;;0.70;0.60;;;;;;;;;;5074361;28;20443;-78
2022/07/01 13:00:44;;;;;;;0.70;0.60;;;;;;;;;;5057071;28;20497;-79
2022/07/01 13:03:11;;;;;;;0.77;0.60;;;;;;;;;;5055068;28;20448;-78
2022/07/01 13:05:39;;;;;;;0.70;0.60;;;;;;;;;;5073880;28;20427;-77
2022/07/01 13:08:11;;;;;;;0.70;0.50;;;;;;;;;;5059367;28;20500;-77
2022/07/01 13:10:38;;;;;;;4.07;1.10;;;;;;;;;;5055024;28;21000;-77
2022/07/01 13:13:05;;;;;;;0.80;0.57;;;;;;;;;;5045364;28;20469;-78
2022/07/01 13:15:32;;;;;;;0.70;0.50;;;;;;;;;;5070262;28;20552;-77
2022/07/01 13:17:59;;;;;;;0.70;0.50;;;;;;;;;;5071683;28;20440;-74
2022/07/01 13:20:28;;;;;;;0.70;0.50;;;;;;;;;;5071526;28;20507;-76
2022/07/01 13:22:57;;;;;;;0.80;0.60;;;;;;;;;;5073640;28;20991;-78
2022/07/01 13:25:26;;;;;;;0.70;0.50;;;;;;;;;;5072497;28;20500;-79
2022/07/01 13:27:53;;;;;;;0.70;0.53;;;;;;;;;;5072768;28;20859;-78
2022/07/01 13:30:20;;;;;;;0.70;0.50;;;;;;;;;;5071876;28;20451;-79
2022/07/01 13:32:46;;;;;;;0.70;0.60;;;;;;;;;;5072554;28;20522;-76
2022/07/01 13:35:15;;;;;;;0.70;0.50;;;;;;;;;;5073213;28;20435;-80
2022/07/01 13:37:41;;;;;;;0.70;0.50;;;;;;;;;;5055895;28;20466;-79
2022/07/01 13:40:10;;;;;;;0.70;0.50;;;;;;;;;;5072421;28;20931;-81
2022/07/01 13:42:38;;;;;;;0.70;0.50;;;;;;;;;;5056182;28;20439;-82
2022/07/01 13:45:05;;;;;;;0.70;0.50;;;;;;;;;;5053286;28;20447;-82
2022/07/01 13:47:32;;;;;;;0.70;0.50;;;;;;;;;;5037198;28;20947;-82
2022/07/01 13:49:59;;;;;;;0.70;0.60;;;;;;;;;;5052794;28;20439;-80
2022/07/01 13:52:29;;;;;;;0.70;0.60;;;;;;;;;;5052969;28;20537;-86
2022/07/01 13:54:56;;;;;;;0.70;0.50;;;;;;;;;;5053104;28;21010;-81
2022/07/01 13:57:23;;;;;;;0.70;0.50;;;;;;;;;;5054128;28;20420;-78
2022/07/01 13:59:57;;;;;;;0.70;0.60;;;;;;;;;;5038918;28;20459;-77
2022/07/01 14:02:34;;;;;;;0.70;0.50;;;;;;;;;;5053155;28;20405;-81
2022/07/01 14:05:01;;;;;;;0.70;0.50;;;;;;;;;;5054288;28;20417;-82
2022/07/01 14:07:28;;;;;;;0.70;0.50;;;;;;;;;;5035214;28;20467;-83
2022/07/01 14:09:54;;;;;;;0.80;0.80;;;;;;;;;;5052306;28;20435;-82
2022/07/01 14:12:21;;;;;;;0.70;0.60;;;;;;;;;;5053600;28;20482;-84
2022/07/01 14:14:55;;;;;;;0.70;0.60;;;;;;;;;;5042685;28;20479;-83
2022/07/01 14:17:22;;;;;;;0.70;0.50;;;;;;;;;;5058860;28;20471;-80
2022/07/01 14:19:49;;;;;;;0.80;0.60;;;;;;;;;;5037118;28;20491;-83
2022/07/01 14:22:18;;;;;;;0.70;0.50;;;;;;;;;;5054917;28;20969;-83
2022/07/01 14:24:45;;;;;;;0.80;0.60;;;;;;;;;;5074474;28;20428;-83
2022/07/01 14:27:12;;;;;;;0.80;0.60;;;;;;;;;;5051599;28;20959;-82
2022/07/01 14:29:39;;;;;;;0.80;0.60;;;;;;;;;;5051769;28;20534;-83
2022/07/01 14:32:07;;;;;;;0.70;0.50;;;;;;;;;;5054521;28;20422;-81
2022/07/01 14:34:36;;;;;;;0.70;0.50;;;;;;;;;;5038206;28;20458;-84
2022/07/01 14:37:04;;;;;;;0.70;0.50;;;;;;;;;;5060651;28;20986;-81
2022/07/01 14:39:31;;;;;;;0.70;0.50;;;;;;;;;;5045992;28;20553;-82
2022/07/01 14:41:58;;;;;;;0.70;0.50;;;;;;;;;;5050988;28;20440;-82
2022/07/01 14:44:25;;;;;;;0.80;0.60;;;;;;;;;;5056744;28;20802;-84
2022/07/01 14:46:53;;;;;;;0.80;0.60;;;;;;;;;;5071466;28;20443;-83
2022/07/01 14:49:23;;;;;;;0.70;0.50;;;;;;;;;;5074381;28;20840;-82
2022/07/01 14:51:49;;;;;;;0.70;0.60;;;;;;;;;;5063406;28;20471;-82
2022/07/01 14:54:20;;;;;;;0.70;0.60;;;;;;;;;;5067140;28;20497;-86
2022/07/01 14:56:47;;;;;;;0.80;0.60;;;;;;;;;;5069430;28;20546;-81
2022/07/01 14:59:14;;;;;;;0.70;0.60;;;;;;;;;;5041102;28;20444;-84
2022/07/01 15:01:40;;;;;;;0.70;0.60;;;;;;;;;;5053329;28;20467;-84
2022/07/01 15:04:08;;;;;;;0.70;0.60;;;;;;;;;;5055787;28;20451;-78
2022/07/01 15:06:36;;;;;;;1.10;0.90;;;;;;;;;;5051938;28;20470;-84